Time,TemperatureF,DewpointF,PressureIn,WindDirection,WindDirectionDegrees,WindSpeedMPH,WindSpeedGustMPH,Humidity,HourlyPrecipIn,Conditions,Clouds,dailyrainin,SoftwareType,DateUTC
2013-09-07 13:52:00,79.0,63.9,29.88,SSE,158,8.1,8.1,60,0.00,,,0.00,VWS V14.01,2013-09-07 03:52:00,
2013-09-07 13:53:00,79.0,63.9,29.88,SSE,158,11.9,11.9,60,1.24,,,1.24,VWS V14.01,2013-09-07 03:53:00,
2013-09-07 13:54:00,79.3,64.3,29.85,South,180,5.6,11.9,60,1.24,,,1.24,VWS V14.01,2013-09-07 03:54:00,
2013-09-07 13:55:00,79.3,64.3,29.85,SE,135,4.9,5.6,60,1.24,,,1.24,VWS V14.01,2013-09-07 03:55:00,
2013-09-07 13:57:00,79.7,65.1,29.85,NE,45,4.3,4.3,61,1.24,,,1.24,VWS V14.01,2013-09-07 03:57:00,
2013-09-07 14:01:00,79.3,64.3,29.85,SSE,158,5.4,6.3,60,1.24,,,1.24,VWS V14.01,2013-09-07 04:01:00,
2013-09-07 14:02:00,79.3,64.3,29.85,SSE,158,6.3,6.3,60,1.24,,,1.24,VWS V14.01,2013-09-07 04:02:00,
2013-09-07 14:04:00,79.3,63.8,29.85,NE,45,3.1,9.8,59,1.24,,,1.24,VWS V14.01,2013-09-07 04:04:00,
2013-09-07 14:05:00,79.2,63.6,29.85,ESE,112,6.5,6.5,59,1.24,,,1.24,VWS V14.01,2013-09-07 04:05:00,
2013-09-07 14:10:00,78.6,63.6,29.85,ENE,68,9.4,10.7,60,1.24,,,1.24,VWS V14.01,2013-09-07 04:10:00,
2013-09-07 14:15:00,77.9,62.9,29.85,ESE,112,12.5,12.5,60,1.24,,,1.24,VWS V14.01,2013-09-07 04:15:00,
2013-09-07 14:20:00,77.4,61.9,29.85,NNE,22,10.7,10.7,59,1.24,,,1.24,VWS V14.01,2013-09-07 04:20:00,
2013-09-07 14:25:00,77.7,62.7,29.85,NE,45,3.6,3.6,60,1.24,,,1.24,VWS V14.01,2013-09-07 04:25:00,
2013-09-07 14:30:00,77.9,62.4,29.85,SE,135,7.2,7.2,59,1.24,,,1.24,VWS V14.01,2013-09-07 04:30:00,
2013-09-07 14:35:00,77.9,62.4,29.85,East,90,6.5,6.5,59,1.24,,,1.24,VWS V14.01,2013-09-07 04:35:00,
2013-09-07 14:40:00,77.9,62.4,29.85,ENE,68,3.4,3.4,59,1.24,,,1.24,VWS V14.01,2013-09-07 04:40:00,
2013-09-07 14:43:00,78.3,62.8,29.85,SSE,158,5.8,12.8,59,1.24,,,1.24,VWS V14.01,2013-09-07 04:43:00,
2013-09-07 16:02:00,77.9,63.4,29.85,East,90,4.9,4.9,61,1.24,,,1.24,VWS V14.01,2013-09-07 06:02:00,
2013-09-07 16:07:00,77.5,63.0,29.85,SE,135,4.0,4.0,61,0.00,,,1.24,VWS V14.01,2013-09-07 06:07:00,
2013-09-07 16:12:00,77.0,62.5,29.85,SE,135,5.8,5.8,61,0.00,,,1.24,VWS V14.01,2013-09-07 06:12:00,
2013-09-07 16:17:00,77.4,62.9,29.85,South,180,3.4,3.4,61,0.00,,,1.24,VWS V14.01,2013-09-07 06:17:00,
2013-09-07 16:22:00,77.2,62.7,29.85,North,360,2.5,3.1,61,0.00,,,1.24,VWS V14.01,2013-09-07 06:22:00,
2013-09-07 16:27:00,77.2,63.2,29.85,ENE,68,3.4,3.4,62,0.00,,,1.24,VWS V14.01,2013-09-07 06:27:00,
2013-09-07 16:32:00,75.9,62.4,29.85,ESE,112,13.0,13.0,63,0.00,,,1.24,VWS V14.01,2013-09-07 06:32:00,
2013-09-07 16:37:00,75.2,61.8,29.85,ENE,68,4.0,4.9,63,0.00,,,1.24,VWS V14.01,2013-09-07 06:37:00,
2013-09-07 16:42:00,75.2,61.8,29.88,SSE,158,2.0,2.0,63,0.00,,,1.24,VWS V14.01,2013-09-07 06:42:00,
2013-09-07 16:47:00,75.2,62.2,29.88,SSE,158,4.7,6.3,64,0.00,,,1.24,VWS V14.01,2013-09-07 06:47:00,
2013-09-07 16:53:00,75.2,62.6,29.88,SE,135,8.7,8.7,65,0.00,,,1.24,VWS V14.01,2013-09-07 06:53:00,
2013-09-07 16:58:00,75.2,62.6,29.88,SSE,158,6.5,6.5,65,0.00,,,1.24,VWS V14.01,2013-09-07 06:58:00,
2013-09-07 17:03:00,75.0,62.5,29.88,SW,225,5.4,5.4,65,0.00,,,1.24,VWS V14.01,2013-09-07 07:03:00,
2013-09-07 17:08:00,75.0,62.9,29.88,SSW,202,3.8,3.8,66,0.00,,,1.24,VWS V14.01,2013-09-07 07:08:00,
2013-09-07 17:13:00,75.2,62.6,29.88,South,180,4.0,4.0,65,0.00,,,1.24,VWS V14.01,2013-09-07 07:13:00,
2013-09-07 17:18:00,75.0,62.9,29.88,South,180,2.5,2.5,66,0.00,,,1.24,VWS V14.01,2013-09-07 07:18:00,
2013-09-07 17:23:00,74.8,63.6,29.88,South,180,2.2,2.5,68,0.00,,,1.24,VWS V14.01,2013-09-07 07:23:00,
2013-09-07 17:28:00,74.3,63.5,29.88,SE,135,0.0,0.0,69,0.00,,,1.24,VWS V14.01,2013-09-07 07:28:00,
2013-09-07 17:33:00,73.9,63.5,29.88,East,90,3.6,3.6,70,0.00,,,1.24,VWS V14.01,2013-09-07 07:33:00,
2013-09-07 17:38:00,73.4,63.0,29.88,South,180,5.8,6.5,70,0.00,,,1.24,VWS V14.01,2013-09-07 07:38:00,
2013-09-07 17:43:00,73.2,63.3,29.91,SSE,158,3.6,3.6,71,0.00,,,1.24,VWS V14.01,2013-09-07 07:43:00,
2013-09-07 17:48:00,73.0,63.1,29.91,SSW,202,6.3,6.3,71,0.00,,,1.24,VWS V14.01,2013-09-07 07:48:00,
2013-09-07 17:53:00,72.5,62.2,29.91,South,180,7.6,7.6,70,0.00,,,1.24,VWS V14.01,2013-09-07 07:53:00,
2013-09-07 17:58:00,72.3,62.4,29.91,SSE,158,4.3,6.3,71,0.00,,,1.24,VWS V14.01,2013-09-07 07:58:00,
2013-09-07 18:03:00,72.5,63.0,29.91,South,180,5.4,5.6,72,0.00,,,1.24,VWS V14.01,2013-09-07 08:03:00,
2013-09-07 18:08:00,72.3,62.4,29.91,SW,225,2.2,2.2,71,0.00,,,1.24,VWS V14.01,2013-09-07 08:08:00,
2013-09-07 18:13:00,72.3,63.2,29.91,SSE,158,2.9,2.9,73,0.00,,,1.24,VWS V14.01,2013-09-07 08:13:00,
2013-09-07 18:18:00,72.0,62.8,29.91,SSE,158,3.1,3.1,73,0.00,,,1.24,VWS V14.01,2013-09-07 08:18:00,
2013-09-07 18:23:00,71.6,62.9,29.91,SSE,158,3.1,3.1,74,0.00,,,1.24,VWS V14.01,2013-09-07 08:23:00,
2013-09-07 18:29:00,71.4,62.7,29.91,South,180,3.8,3.8,74,0.00,,,1.24,VWS V14.01,2013-09-07 08:29:00,
2013-09-07 18:34:00,71.4,63.1,29.91,SSE,158,4.3,4.3,75,0.00,,,1.24,VWS V14.01,2013-09-07 08:34:00,
2013-09-07 18:39:00,71.6,63.3,29.91,South,180,4.0,4.0,75,0.00,,,1.24,VWS V14.01,2013-09-07 08:39:00,
2013-09-07 18:44:00,71.4,63.5,29.91,SSE,158,2.7,2.7,76,0.00,,,1.24,VWS V14.01,2013-09-07 08:44:00,
2013-09-07 18:49:00,71.2,63.3,29.91,South,180,2.5,4.7,76,0.00,,,1.24,VWS V14.01,2013-09-07 08:49:00,
2013-09-07 18:54:00,71.2,63.3,29.91,SSE,158,3.4,4.9,76,0.00,,,1.24,VWS V14.01,2013-09-07 08:54:00,
2013-09-07 18:59:00,71.1,63.5,29.91,SSE,158,7.2,7.2,77,0.00,,,1.24,VWS V14.01,2013-09-07 08:59:00,
2013-09-07 19:04:00,70.7,63.1,29.91,SSE,158,2.9,2.9,77,0.00,,,1.24,VWS V14.01,2013-09-07 09:04:00,
2013-09-07 19:09:00,70.7,63.5,29.91,SE,135,3.6,5.6,78,0.00,,,1.24,VWS V14.01,2013-09-07 09:09:00,
2013-09-07 19:14:00,70.7,63.5,29.91,SW,225,4.5,4.5,78,0.00,,,1.24,VWS V14.01,2013-09-07 09:14:00,
2013-09-07 19:19:00,70.9,63.3,29.91,SSW,202,3.1,3.1,77,0.00,,,1.24,VWS V14.01,2013-09-07 09:19:00,
2013-09-07 19:24:00,70.9,63.3,29.91,SW,225,6.0,6.0,77,0.00,,,1.24,VWS V14.01,2013-09-07 09:24:00,
2013-09-07 19:29:00,70.9,63.3,29.91,SSE,158,1.3,1.6,77,0.00,,,1.24,VWS V14.01,2013-09-07 09:29:00,
2013-09-07 19:34:00,70.9,63.3,29.91,South,180,2.5,2.5,77,0.00,,,1.24,VWS V14.01,2013-09-07 09:34:00,
2013-09-07 19:39:00,70.9,63.3,29.91,South,180,2.5,2.5,77,0.00,,,1.24,VWS V14.01,2013-09-07 09:39:00,
2013-09-07 19:44:00,70.7,63.5,29.91,SSE,158,2.0,2.7,78,0.00,,,1.24,VWS V14.01,2013-09-07 09:44:00,
2013-09-07 19:49:00,70.7,63.5,29.91,South,180,2.5,3.1,78,0.00,,,1.24,VWS V14.01,2013-09-07 09:49:00,
2013-09-07 19:54:00,70.5,63.3,29.91,ESE,112,2.7,2.7,78,0.00,,,1.24,VWS V14.01,2013-09-07 09:54:00,
2013-09-07 19:59:00,70.3,63.2,29.91,SE,135,3.4,3.4,78,0.00,,,1.24,VWS V14.01,2013-09-07 09:59:00,
2013-09-07 20:04:00,70.3,63.5,29.91,South,180,3.1,4.0,79,0.00,,,1.24,VWS V14.01,2013-09-07 10:04:00,
2013-09-07 20:09:00,70.2,63.3,29.91,East,90,2.5,2.5,79,0.00,,,1.24,VWS V14.01,2013-09-07 10:09:00,
2013-09-07 20:14:00,70.2,63.7,29.91,SE,135,0.0,0.0,80,0.00,,,1.24,VWS V14.01,2013-09-07 10:14:00,
2013-09-07 20:20:00,70.3,63.9,29.91,SW,225,2.0,2.0,80,0.00,,,1.24,VWS V14.01,2013-09-07 10:20:00,
2013-09-07 20:25:00,70.3,64.2,29.91,SW,225,0.0,0.0,81,0.00,,,1.24,VWS V14.01,2013-09-07 10:25:00,
2013-09-07 20:30:00,70.3,64.2,29.91,SW,225,0.0,0.0,81,0.00,,,1.24,VWS V14.01,2013-09-07 10:30:00,
2013-09-07 20:35:00,70.3,63.9,29.91,SW,225,0.0,0.0,80,0.00,,,1.24,VWS V14.01,2013-09-07 10:35:00,
2013-09-07 20:40:00,70.2,64.1,29.91,SSE,158,4.7,4.7,81,0.00,,,1.24,VWS V14.01,2013-09-07 10:40:00,
2013-09-07 20:45:00,70.2,64.1,29.91,SSE,158,3.1,3.1,81,0.00,,,1.24,VWS V14.01,2013-09-07 10:45:00,
2013-09-07 20:50:00,70.0,63.9,29.91,South,180,3.8,4.3,81,0.00,,,1.24,VWS V14.01,2013-09-07 10:50:00,
2013-09-07 20:55:00,69.8,63.7,29.91,SSE,158,4.3,4.3,81,0.00,,,1.24,VWS V14.01,2013-09-07 10:55:00,
2013-09-07 21:00:00,69.6,63.9,29.91,SE,135,5.4,5.4,82,0.00,,,1.24,VWS V14.01,2013-09-07 11:00:00,
2013-09-07 21:05:00,69.6,63.5,29.91,SSE,158,2.9,3.8,81,0.00,,,1.24,VWS V14.01,2013-09-07 11:05:00,
2013-09-07 21:10:00,69.8,63.7,29.91,South,180,3.1,6.3,81,0.00,,,1.24,VWS V14.01,2013-09-07 11:10:00,
2013-09-07 21:15:00,69.8,63.7,29.91,SE,135,6.5,6.5,81,0.00,,,1.24,VWS V14.01,2013-09-07 11:15:00,
2013-09-07 21:20:00,69.8,63.7,29.91,SE,135,2.7,2.7,81,0.00,,,1.24,VWS V14.01,2013-09-07 11:20:00,
2013-09-07 21:25:00,69.8,63.7,29.91,South,180,2.2,2.9,81,0.00,,,1.24,VWS V14.01,2013-09-07 11:25:00,
2013-09-07 21:30:00,69.8,63.7,29.91,South,180,3.8,4.0,81,0.00,,,1.24,VWS V14.01,2013-09-07 11:30:00,
2013-09-07 21:35:00,70.0,63.9,29.91,SSE,158,3.8,5.6,81,0.00,,,1.24,VWS V14.01,2013-09-07 11:35:00,
2013-09-07 21:40:00,70.0,63.9,29.91,SSE,158,2.7,3.6,81,0.00,,,1.24,VWS V14.01,2013-09-07 11:40:00,
2013-09-07 21:45:00,69.8,63.7,29.91,SSE,158,4.0,4.0,81,0.00,,,1.24,VWS V14.01,2013-09-07 11:45:00,
2013-09-07 21:50:00,69.8,63.7,29.91,SE,135,3.1,3.8,81,0.00,,,1.24,VWS V14.01,2013-09-07 11:50:00,
2013-09-07 21:55:00,69.8,63.7,29.94,SSE,158,4.9,5.8,81,0.00,,,1.24,VWS V14.01,2013-09-07 11:55:00,
2013-09-07 22:00:00,69.8,63.7,29.94,SSE,158,3.1,3.1,81,0.00,,,1.24,VWS V14.01,2013-09-07 12:00:00,
2013-09-07 22:06:00,69.6,63.9,29.94,SSE,158,3.1,3.8,82,0.00,,,1.24,VWS V14.01,2013-09-07 12:06:00,
2013-09-07 22:11:00,69.8,63.7,29.94,SSE,158,2.7,2.7,81,0.00,,,1.24,VWS V14.01,2013-09-07 12:11:00,
2013-09-07 22:16:00,69.6,63.5,29.94,ESE,112,3.6,4.0,81,0.00,,,1.24,VWS V14.01,2013-09-07 12:16:00,
2013-09-07 22:21:00,69.8,63.7,29.94,WSW,248,3.4,6.3,81,0.00,,,1.24,VWS V14.01,2013-09-07 12:21:00,
2013-09-07 22:26:00,69.8,63.7,29.91,South,180,4.0,4.0,81,0.00,,,1.24,VWS V14.01,2013-09-07 12:26:00,
2013-09-07 22:31:00,69.6,63.5,29.91,SSE,158,3.6,3.8,81,0.00,,,1.24,VWS V14.01,2013-09-07 12:31:00,
2013-09-07 22:36:00,69.4,63.7,29.91,SSE,158,6.7,6.7,82,0.00,,,1.24,VWS V14.01,2013-09-07 12:36:00,
2013-09-07 22:41:00,69.4,63.7,29.94,SE,135,4.0,4.0,82,0.00,,,1.24,VWS V14.01,2013-09-07 12:41:00,
2013-09-07 22:46:00,69.3,63.9,29.94,SSW,202,4.9,4.9,83,0.00,,,1.24,VWS V14.01,2013-09-07 12:46:00,
2013-09-07 22:51:00,69.1,63.7,29.94,SSW,202,4.9,4.9,83,0.00,,,1.24,VWS V14.01,2013-09-07 12:51:00,